Time;durP1;ratioP1;P1;durP2;ratioP2;P2;SDS_P1;SDS_P2;PMS_P1;PMS_P2;Temp;Humidity;BMP_temperature;BMP_pressure;BME280_temperature;BME280_humidity;BME280_pressure;Samples;Min_cycle;Max_cycle;Signal;HPM_P1;HPM_P2
2021/11/12 00:13:51;;;;;;;;;;;;;;;;;;5011620;28;19944;-75
2021/11/12 00:16:18;;;;;;;;;;;;;;;;;;5021282;28;19943;-75
2021/11/12 00:18:44;;;;;;;;;;;;;;;;;;5029145;28;19929;-76
2021/11/12 00:21:10;;;;;;;;;;;;;;;;;;5009750;28;19913;-75
2021/11/12 00:23:38;;;;;;;;;;;;;;;;;;5019596;28;20013;-76
2021/11/12 00:26:04;;;;;;;;;;;;;;;;;;5010749;28;19964;-75
2021/11/12 00:28:36;;;;;;;;;;;;;;;;;;5027631;28;20566;-75
2021/11/12 00:31:16;;;;;;;;;;;;;;;;;;5013125;28;20172;-74
2021/11/12 00:41:40;;;;;;;;;;;;;;;;;;5031838;28;19932;-76
2021/11/12 00:47:25;;;;;;;;;;;;;;;;;;5023951;28;19913;-76
2021/11/12 00:49:28;;;;;;;;;;;;;;;;;;5023851;28;20322;-76
2021/11/12 00:53:41;;;;;;;;;;;;;;;;;;5011269;28;20017;-74
2021/11/12 00:54:49;;;;;;;;;;;;;;;;;;5004826;28;19948;-75
2021/11/12 00:57:14;;;;;;;;;;;;;;;;;;5020618;28;19971;-76
2021/11/12 00:59:40;;;;;;;;;;;;;;;;;;5029417;28;19909;-76
2021/11/12 01:02:06;;;;;;;;;;;;;;;;;;5028906;28;20405;-76
2021/11/12 01:04:32;;;;;;;;;;;;;;;;;;5030452;28;19971;-76
2021/11/12 01:06:58;;;;;;;;;;;;;;;;;;5015204;28;19913;-75
2021/11/12 01:09:24;;;;;;;;;;;;;;;;;;5031319;28;20314;-76
2021/11/12 01:11:50;;;;;;;;;;;;;;;;;;5015759;28;19920;-75
2021/11/12 01:14:16;;;;;;;;;;;;;;;;;;5010236;28;20000;-76
2021/11/12 01:16:43;;;;;;;;;;;;;;;;;;5010796;28;20041;-76
2021/11/12 01:19:10;;;;;;;;;;;;;;;;;;5011063;28;19971;-75
2021/11/12 01:21:36;;;;;;;;;;;;;;;;;;5009520;28;20007;-76
2021/11/12 01:24:01;;;;;;;;;;;;;;;;;;5008167;28;20071;-75
2021/11/12 01:26:28;;;;;;;;;;;;;;;;;;5009539;28;20016;-76
2021/11/12 01:28:54;;;;;;;;;;;;;;;;;;5013864;28;19929;-76
2021/11/12 01:31:26;;;;;;;;;;;;;;;;;;5009385;28;19910;-75
2021/11/12 01:33:52;;;;;;;;;;;;;;;;;;5009765;28;19931;-75
2021/11/12 01:38:56;;;;;;;;;;;;;;;;;;5016137;28;19920;-75
2021/11/12 01:41:22;;;;;;;;;;;;;;;;;;5015067;28;19918;-75
2021/11/12 01:43:49;;;;;;;;;;;;;;;;;;5009406;28;20310;-76
2021/11/12 01:53:50;;;;;;;;;;;;;;;;;;5010617;28;19917;-76
2021/11/12 01:59:15;;;;;;;;;;;;;;;;;;4997610;28;20210;-76
2021/11/12 02:01:41;;;;;;;;;;;;;;;;;;5009285;28;19936;-75
2021/11/12 02:04:09;;;;;;;;;;;;;;;;;;5009194;28;20574;-76
2021/11/12 02:06:36;;;;;;;;;;;;;;;;;;5009585;28;19913;-74
2021/11/12 02:09:01;;;;;;;;;;;;;;;;;;5027775;28;19972;-75
2021/11/12 02:11:27;;;;;;;;;;;;;;;;;;5026048;28;19913;-76
2021/11/12 02:13:55;;;;;;;;;;;;;;;;;;5010372;28;19944;-76
2021/11/12 02:16:26;;;;;;;;;;;;;;;;;;5028228;28;20354;-75
2021/11/12 02:18:53;;;;;;;;;;;;;;;;;;5028505;28;19920;-75
2021/11/12 02:23:55;;;;;;;;;;;;;;;;;;5009245;28;20008;-76
2021/11/12 02:26:22;;;;;;;;;;;;;;;;;;5009615;28;20000;-76
2021/11/12 02:28:52;;;;;;;;;;;;;;;;;;5007927;28;19979;-76
2021/11/12 02:31:18;;;;;;;;;;;;;;;;;;5008348;28;19913;-76
2021/11/12 02:33:44;;;;;;;;;;;;;;;;;;5024768;28;19920;-75
2021/11/12 02:36:11;;;;;;;;;;;;;;;;;;5029577;28;19916;-75
2021/11/12 02:38:39;;;;;;;;;;;;;;;;;;5027415;28;19971;-75
2021/11/12 02:41:05;;;;;;;;;;;;;;;;;;5028553;28;19913;-74
2021/11/12 02:43:32;;;;;;;;;;;;;;;;;;5028043;28;20321;-75
2021/11/12 02:46:01;;;;;;;;;;;;;;;;;;5009622;28;19941;-75
2021/11/12 02:48:26;;;;;;;;;;;;;;;;;;5008666;28;19913;-75
2021/11/12 02:50:54;;;;;;;;;;;;;;;;;;5023470;28;19941;-76
2021/11/12 02:53:20;;;;;;;;;;;;;;;;;;5008945;28;20699;-75
2021/11/12 02:55:46;;;;;;;;;;;;;;;;;;5007186;28;19914;-75
2021/11/12 02:58:12;;;;;;;;;;;;;;;;;;5015055;28;19913;-75
2021/11/12 03:00:39;;;;;;;;;;;;;;;;;;5010809;28;19992;-76
2021/11/12 03:03:05;;;;;;;;;;;;;;;;;;5011908;28;19909;-75
2021/11/12 03:05:31;;;;;;;;;;;;;;;;;;5023480;28;20558;-76
2021/11/12 03:07:57;;;;;;;;;;;;;;;;;;5031158;28;19920;-76
2021/11/12 03:10:23;;;;;;;;;;;;;;;;;;5025399;28;20432;-75
2021/11/12 03:12:49;;;;;;;;;;;;;;;;;;5015089;28;19953;-75
2021/11/12 03:15:14;;;;;;;;;;;;;;;;;;5015466;28;20373;-76
2021/11/12 03:17:40;;;;;;;;;;;;;;;;;;5030614;28;19924;-75
2021/11/12 03:20:06;;;;;;;;;;;;;;;;;;5031749;28;19917;-76
2021/11/12 03:22:40;;;;;;;;;;;;;;;;;;5031333;28;20271;-75
2021/11/12 03:25:10;;;;;;;;;;;;;;;;;;5024767;28;20397;-75
2021/11/12 03:27:44;;;;;;;;;;;;;;;;;;5028238;28;19928;-76
2021/11/12 03:30:44;;;;;;;;;;;;;;;;;;5031841;28;19913;-74
2021/11/12 04:03:06;;;;;;;;;;;;;;;;;;5027936;28;19914;-74
2021/11/12 04:21:59;;;;;;;;;;;;;;;;;;5010966;28;19956;-76
2021/11/12 05:11:50;;;;;;;;;;;;;;;;;;5010428;28;20444;-76
2021/11/12 05:14:12;;;;;;;;;;;;;;;;;;5006973;28;19960;-74
2021/11/12 05:46:42;;;;;;;;;;;;;;;;;;5010542;28;20390;-76
2021/11/12 05:57:22;;;;;;;;;;;;;;;;;;5025513;28;20395;-76
2021/11/12 05:59:47;;;;;;;;;;;;;;;;;;5018353;28;19914;-76
2021/11/12 06:02:13;;;;;;;;;;;;;;;;;;5007760;28;20361;-77
2021/11/12 06:04:39;;;;;;;;;;;;;;;;;;5021651;28;19921;-75
2021/11/12 06:07:05;;;;;;;;;;;;;;;;;;5020747;28;19946;-76
2021/11/12 06:09:31;;;;;;;;;;;;;;;;;;5015428;28;19952;-77
2021/11/12 06:11:57;;;;;;;;;;;;;;;;;;5012084;28;19913;-77
2021/11/12 06:14:23;;;;;;;;;;;;;;;;;;5017359;28;19910;-76
2021/11/12 06:16:49;;;;;;;;;;;;;;;;;;5023444;28;19936;-74
2021/11/12 06:19:16;;;;;;;;;;;;;;;;;;5014471;28;19913;-75
2021/11/12 06:21:42;;;;;;;;;;;;;;;;;;5021644;28;19913;-75
2021/11/12 06:24:08;;;;;;;;;;;;;;;;;;5017402;28;20297;-76
2021/11/12 06:26:34;;;;;;;;;;;;;;;;;;5012189;28;19928;-75
2021/11/12 06:29:00;;;;;;;;;;;;;;;;;;5008625;28;20290;-75
2021/11/12 06:31:26;;;;;;;;;;;;;;;;;;5015884;28;19916;-76
2021/11/12 06:33:52;;;;;;;;;;;;;;;;;;5025234;28;19913;-74
2021/11/12 06:36:18;;;;;;;;;;;;;;;;;;5014292;28;20366;-74
2021/11/12 06:38:44;;;;;;;;;;;;;;;;;;5026402;28;20012;-75
2021/11/12 06:41:13;;;;;;;;;;;;;;;;;;5010783;28;19917;-76
2021/11/12 06:43:54;;;;;;;;;;;;;;;;;;5016675;28;19924;-75
2021/11/12 06:49:28;;;;;;;;;;;;;;;;;;5021814;28;19936;-74
2021/11/12 06:51:54;;;;;;;;;;;;;;;;;;5018666;28;19918;-75
2021/11/12 06:54:20;;;;;;;;;;;;;;;;;;5007772;28;20424;-74
2021/11/12 06:56:47;;;;;;;;;;;;;;;;;;5015013;28;20405;-75
2021/11/12 06:59:13;;;;;;;;;;;;;;;;;;5011412;28;20535;-76
2021/11/12 07:01:39;;;;;;;;;;;;;;;;;;5016072;28;19917;-74
2021/11/12 07:04:04;;;;;;;;;;;;;;;;;;5019214;28;20583;-75
2021/11/12 07:06:30;;;;;;;;;;;;;;;;;;5020352;28;20292;-75
2021/11/12 07:08:56;;;;;;;;;;;;;;;;;;5024623;28;19921;-75
2021/11/12 07:11:22;;;;;;;;;;;;;;;;;;5023734;28;20015;-76
2021/11/12 07:13:48;;;;;;;;;;;;;;;;;;5022255;28;20285;-76
2021/11/12 07:16:14;;;;;;;;;;;;;;;;;;5023990;28;19916;-75
2021/11/12 07:18:40;;;;;;;;;;;;;;;;;;5023414;28;19917;-75
2021/11/12 07:21:06;;;;;;;;;;;;;;;;;;5012154;28;20262;-76
2021/11/12 07:23:32;;;;;;;;;;;;;;;;;;5020791;28;19918;-76
2021/11/12 07:25:58;;;;;;;;;;;;;;;;;;5010648;28;19914;-75
2021/11/12 07:28:25;;;;;;;;;;;;;;;;;;5019672;28;19980;-75
2021/11/12 07:30:51;;;;;;;;;;;;;;;;;;5024399;28;19967;-75
2021/11/12 07:33:17;;;;;;;;;;;;;;;;;;5028450;28;20316;-75
2021/11/12 07:36:08;;;;;;;;;;;;;;;;;;5017477;28;19944;-76
2021/11/12 07:38:47;;;;;;;;;;;;;;;;;;5020662;28;19924;-74
2021/11/12 07:41:42;;;;;;;;;;;;;;;;;;5019039;28;19913;-75
2021/11/12 07:44:22;;;;;;;;;;;;;;;;;;5023036;28;19964;-75
2021/11/12 07:47:02;;;;;;;;;;;;;;;;;;5014141;28;19913;-75
2021/11/12 07:49:28;;;;;;;;;;;;;;;;;;5011764;28;19917;-76
2021/11/12 07:51:55;;;;;;;;;;;;;;;;;;5014408;28;19924;-75
2021/11/12 07:54:21;;;;;;;;;;;;;;;;;;5017416;28;19915;-75
2021/11/12 07:56:48;;;;;;;;;;;;;;;;;;5020613;28;20292;-75
2021/11/12 07:59:13;;;;;;;;;;;;;;;;;;5012302;28;19913;-76
2021/11/12 08:01:40;;;;;;;;;;;;;;;;;;5017917;28;20281;-77
2021/11/12 08:04:08;;;;;;;;;;;;;;;;;;5025856;28;19924;-76
2021/11/12 08:06:34;;;;;;;;;;;;;;;;;;5008636;28;19979;-75
2021/11/12 08:09:04;;;;;;;;;;;;;;;;;;5016643;28;20004;-75
2021/11/12 08:14:15;;;;;;;;;;;;;;;;;;5019562;28;20374;-75
2021/11/12 08:22:05;;;;;;;;;;;;;;;;;;5020249;28;19920;-77
2021/11/12 08:25:06;;;;;;;;;;;;;;;;;;5019549;28;20100;-74
2021/11/12 08:32:47;;;;;;;;;;;;;;;;;;5031091;28;20491;-76
2021/11/12 08:35:24;;;;;;;;;;;;;;;;;;5008550;28;20000;-74
2021/11/12 08:43:32;;;;;;;;;;;;;;;;;;5034181;28;19909;-75
2021/11/12 08:46:05;;;;;;;;;;;;;;;;;;5039151;28;19920;-75
2021/11/12 08:48:55;;;;;;;;;;;;;;;;;;5041129;28;19999;-75
2021/11/12 08:51:21;;;;;;;;;;;;;;;;;;5038513;28;19959;-74
2021/11/12 08:53:47;;;;;;;;;;;;;;;;;;5035718;28;20183;-74
2021/11/12 08:56:13;;;;;;;;;;;;;;;;;;5038019;28;19974;-75
2021/11/12 08:58:39;;;;;;;;;;;;;;;;;;5035417;28;20397;-76
2021/11/12 09:01:05;;;;;;;;;;;;;;;;;;5038680;28;20377;-74
2021/11/12 09:03:31;;;;;;;;;;;;;;;;;;5036279;28;19909;-76
2021/11/12 09:05:57;;;;;;;;;;;;;;;;;;5035734;28;20384;-76
2021/11/12 09:08:23;;;;;;;;;;;;;;;;;;5036346;28;19956;-73
2021/11/12 09:10:49;;;;;;;;;;;;;;;;;;5036220;28;19981;-74
2021/11/12 09:13:21;;;;;;;;;;;;;;;;;;5036413;28;19924;-75
2021/11/12 09:15:53;;;;;;;;;;;;;;;;;;5036077;28;20317;-74
2021/11/12 09:18:22;;;;;;;;;;;;;;;;;;5033522;28;19913;-75
2021/11/12 09:20:49;;;;;;;;;;;;;;;;;;5037719;28;19913;-75
2021/11/12 09:23:15;;;;;;;;;;;;;;;;;;5037675;28;19916;-74
2021/11/12 09:25:41;;;;;;;;;;;;;;;;;;5038891;28;19915;-73
2021/11/12 09:28:07;;;;;;;;;;;;;;;;;;5034029;28;19929;-75
2021/11/12 09:30:36;;;;;;;;;;;;;;;;;;5042257;28;19916;-74
2021/11/12 09:33:02;;;;;;;;;;;;;;;;;;5047512;28;19908;-74
2021/11/12 09:35:28;;;;;;;;;;;;;;;;;;5030988;28;19996;-75
2021/11/12 09:37:54;;;;;;;;;;;;;;;;;;5047390;28;19924;-73
2021/11/12 09:40:20;;;;;;;;;;;;;;;;;;5040294;28;19913;-75
2021/11/12 09:42:47;;;;;;;;;;;;;;;;;;5037326;28;19912;-76
2021/11/12 09:45:13;;;;;;;;;;;;;;;;;;5047035;28;19912;-76
2021/11/12 09:47:40;;;;;;;;;;;;;;;;;;5029323;28;19979;-75
2021/11/12 09:50:06;;;;;;;;;;;;;;;;;;5027878;28;19913;-76
2021/11/12 09:52:35;;;;;;;;;;;;;;;;;;5036645;28;19962;-75
2021/11/12 09:55:02;;;;;;;;;;;;;;;;;;5048311;28;20277;-76
2021/11/12 09:57:30;;;;;;;;;;;;;;;;;;5030915;28;19913;-75
2021/11/12 09:59:57;;;;;;;;;;;;;;;;;;5043518;28;20179;-75
2021/11/12 10:02:23;;;;;;;;;;;;;;;;;;5035511;28;19909;-75
2021/11/12 10:04:48;;;;;;;;;;;;;;;;;;5015033;28;19931;-75
2021/11/12 10:07:15;;;;;;;;;;;;;;;;;;5037572;28;20366;-76
2021/11/12 10:09:40;;;;;;;;;;;;;;;;;;5027696;28;19909;-74
2021/11/12 10:12:07;;;;;;;;;;;;;;;;;;5027315;28;19916;-75
2021/11/12 10:14:40;;;;;;;;;;;;;;;;;;5027962;28;20296;-76
2021/11/12 10:17:10;;;;;;;;;;;;;;;;;;5042503;28;20000;-74
2021/11/12 10:19:36;;;;;;;;;;;;;;;;;;5029893;28;20141;-76
2021/11/12 10:22:03;;;;;;;;;;;;;;;;;;5028956;28;19936;-74
2021/11/12 10:24:30;;;;;;;;;;;;;;;;;;5033292;28;19991;-74
2021/11/12 10:26:56;;;;;;;;;;;;;;;;;;5041914;28;20062;-74
2021/11/12 10:29:24;;;;;;;;;;;;;;;;;;5031694;28;20401;-75
2021/11/12 10:31:50;;;;;;;;;;;;;;;;;;5027189;28;20340;-77
2021/11/12 10:34:16;;;;;;;;;;;;;;;;;;5034240;28;20415;-75
2021/11/12 10:36:42;;;;;;;;;;;;;;;;;;5048218;28;20003;-75
2021/11/12 10:39:08;;;;;;;;;;;;;;;;;;5042821;28;20332;-75
2021/11/12 10:41:34;;;;;;;;;;;;;;;;;;5027010;28;20369;-75
2021/11/12 10:44:00;;;;;;;;;;;;;;;;;;5030507;28;19909;-75
2021/11/12 10:46:26;;;;;;;;;;;;;;;;;;5037765;28;19916;-77
2021/11/12 10:48:51;;;;;;;;;;;;;;;;;;5038452;28;19923;-74
2021/11/12 10:51:18;;;;;;;;;;;;;;;;;;5035045;28;20777;-74
2021/11/12 10:53:44;;;;;;;;;;;;;;;;;;5033060;28;19920;-77
2021/11/12 10:56:10;;;;;;;;;;;;;;;;;;5033595;28;19909;-76
2021/11/12 10:58:36;;;;;;;;;;;;;;;;;;5038437;28;19917;-75
2021/11/12 11:01:02;;;;;;;;;;;;;;;;;;5036204;28;19992;-76
2021/11/12 11:03:29;;;;;;;;;;;;;;;;;;5039235;28;20007;-76
2021/11/12 11:05:55;;;;;;;;;;;;;;;;;;5035669;28;20194;-76
2021/11/12 11:08:21;;;;;;;;;;;;;;;;;;5035986;28;19963;-77
2021/11/12 11:10:47;;;;;;;;;;;;;;;;;;5036844;28;20359;-77
2021/11/12 11:13:13;;;;;;;;;;;;;;;;;;5034900;28;19913;-75
2021/11/12 11:15:39;;;;;;;;;;;;;;;;;;5038320;28;19962;-77
2021/11/12 11:18:07;;;;;;;;;;;;;;;;;;5034228;28;20439;-76
2021/11/12 11:20:34;;;;;;;;;;;;;;;;;;5039691;28;19912;-75
2021/11/12 11:23:01;;;;;;;;;;;;;;;;;;5042904;28;20125;-78
2021/11/12 11:25:27;;;;;;;;;;;;;;;;;;5039691;28;19912;-74
2021/11/12 11:27:53;;;;;;;;;;;;;;;;;;5040673;28;20387;-75
2021/11/12 11:30:18;;;;;;;;;;;;;;;;;;5040018;28;19915;-74
2021/11/12 11:32:46;;;;;;;;;;;;;;;;;;5038928;28;20007;-76
2021/11/12 11:35:12;;;;;;;;;;;;;;;;;;5040355;28;20037;-77
2021/11/12 11:37:38;;;;;;;;;;;;;;;;;;5039868;28;20007;-76
2021/11/12 11:40:04;;;;;;;;;;;;;;;;;;5039688;28;19913;-75
2021/11/12 11:42:30;;;;;;;;;;;;;;;;;;5039677;28;20306;-74
2021/11/12 11:44:56;;;;;;;;;;;;;;;;;;5040009;28;20011;-75
2021/11/12 11:47:23;;;;;;;;;;;;;;;;;;5037008;28;19992;-76
2021/11/12 11:49:49;;;;;;;;;;;;;;;;;;5038615;28;20348;-76
2021/11/12 11:52:15;;;;;;;;;;;;;;;;;;5038394;28;20136;-76
2021/11/12 11:54:41;;;;;;;;;;;;;;;;;;5037134;28;19913;-76
2021/11/12 11:57:06;;;;;;;;;;;;;;;;;;5038149;28;19955;-77
2021/11/12 11:59:35;;;;;;;;;;;;;;;;;;5040681;28;19936;-75
2021/11/12 12:02:01;;;;;;;;;;;;;;;;;;5036352;28;20266;-77
2021/11/12 12:04:29;;;;;;;;;;;;;;;;;;5039961;28;19970;-75
2021/11/12 12:06:55;;;;;;;;;;;;;;;;;;5038072;28;19913;-75
2021/11/12 12:09:26;;;;;;;;;;;;;;;;;;5045011;28;20409;-76
2021/11/12 12:11:52;;;;;;;;;;;;;;;;;;5046646;28;20004;-76
2021/11/12 12:14:18;;;;;;;;;;;;;;;;;;5041056;28;20048;-74
2021/11/12 12:16:45;;;;;;;;;;;;;;;;;;5038356;28;19917;-74
2021/11/12 12:19:11;;;;;;;;;;;;;;;;;;5040689;28;20377;-76
2021/11/12 12:21:45;;;;;;;;;;;;;;;;;;5038270;28;19913;-75
2021/11/12 12:33:00;;;;;;;;;;;;;;;;;;5037484;28;20144;-75
2021/11/12 12:35:34;;;;;;;;;;;;;;;;;;5039625;28;20020;-74
2021/11/12 13:24:18;;;;;;;;;;;;;;;;;;5021836;28;20422;-75
2021/11/12 13:26:44;;;;;;;;;;;;;;;;;;5033807;28;19921;-76
2021/11/12 13:29:10;;;;;;;;;;;;;;;;;;5035117;28;19917;-75
2021/11/12 13:31:36;;;;;;;;;;;;;;;;;;5035316;28;19909;-75
2021/11/12 13:34:05;;;;;;;;;;;;;;;;;;5036144;28;19917;-75
2021/11/12 13:36:31;;;;;;;;;;;;;;;;;;5033552;28;20175;-74
2021/11/12 13:38:57;;;;;;;;;;;;;;;;;;5032020;28;20365;-75
2021/11/12 13:41:23;;;;;;;;;;;;;;;;;;5030962;28;19920;-74
2021/11/12 13:43:49;;;;;;;;;;;;;;;;;;5034049;28;20320;-74
2021/11/12 13:46:15;;;;;;;;;;;;;;;;;;5034561;28;19917;-74
2021/11/12 13:48:41;;;;;;;;;;;;;;;;;;5037119;28;19943;-74
2021/11/12 13:51:07;;;;;;;;;;;;;;;;;;5033011;28;19913;-74
2021/11/12 13:53:32;;;;;;;;;;;;;;;;;;5034489;28;20313;-74
2021/11/12 13:55:58;;;;;;;;;;;;;;;;;;5034009;28;19916;-75
2021/11/12 13:58:26;;;;;;;;;;;;;;;;;;5035115;28;20301;-75
2021/11/12 14:00:52;;;;;;;;;;;;;;;;;;5033500;28;19917;-75
2021/11/12 14:03:19;;;;;;;;;;;;;;;;;;5033957;28;19999;-73
2021/11/12 14:05:45;;;;;;;;;;;;;;;;;;5033797;28;20618;-76
2021/11/12 14:08:11;;;;;;;;;;;;;;;;;;5032001;28;19917;-75
2021/11/12 14:10:37;;;;;;;;;;;;;;;;;;5030523;28;19917;-74
2021/11/12 14:13:05;;;;;;;;;;;;;;;;;;5031687;28;20570;-75
2021/11/12 14:15:42;;;;;;;;;;;;;;;;;;5033807;28;19982;-77
2021/11/12 14:18:25;;;;;;;;;;;;;;;;;;5029536;28;20124;-76
2021/11/12 14:20:52;;;;;;;;;;;;;;;;;;5031841;28;19913;-75
2021/11/12 14:23:25;;;;;;;;;;;;;;;;;;5032621;28;20003;-75
2021/11/12 14:28:37;;;;;;;;;;;;;;;;;;5033290;28;19929;-73
2021/11/12 14:31:28;;;;;;;;;;;;;;;;;;5034083;28;19917;-76
2021/11/12 14:36:47;;;;;;;;;;;;;;;;;;5032164;28;19913;-74
2021/11/12 14:42:30;;;;;;;;;;;;;;;;;;5033913;28;20304;-75
2021/11/12 14:44:47;;;;;;;;;;;;;;;;;;5031611;28;20350;-75
2021/11/12 14:49:53;;;;;;;;;;;;;;;;;;5032568;28;20012;-77
2021/11/12 14:52:24;;;;;;;;;;;;;;;;;;5032386;28;19909;-74
2021/11/12 14:54:52;;;;;;;;;;;;;;;;;;5034043;28;20301;-78
2021/11/12 14:59:49;;;;;;;;;;;;;;;;;;5037410;28;19917;-75
2021/11/12 15:02:15;;;;;;;;;;;;;;;;;;5034353;28;20031;-74
2021/11/12 15:04:41;;;;;;;;;;;;;;;;;;5034257;28;19971;-76
2021/11/12 15:07:08;;;;;;;;;;;;;;;;;;5037240;28;19913;-76
2021/11/12 15:09:36;;;;;;;;;;;;;;;;;;5033339;28;20192;-75
2021/11/12 15:12:06;;;;;;;;;;;;;;;;;;5037001;28;19913;-74
2021/11/12 15:14:46;;;;;;;;;;;;;;;;;;5037330;28;20409;-74
2021/11/12 15:17:12;;;;;;;;;;;;;;;;;;5036789;28;19917;-75
2021/11/12 15:19:41;;;;;;;;;;;;;;;;;;5036135;28;19913;-75
2021/11/12 15:22:34;;;;;;;;;;;;;;;;;;5034935;28;19916;-77
2021/11/12 15:30:09;;;;;;;;;;;;;;;;;;5034647;28;19917;-75
2021/11/12 15:32:38;;;;;;;;;;;;;;;;;;5038418;28;19975;-77
2021/11/12 15:35:06;;;;;;;;;;;;;;;;;;5038583;28;19912;-73
2021/11/12 15:45:19;;;;;;;;;;;;;;;;;;5027432;28;19937;-75
2021/11/12 15:47:48;;;;;;;;;;;;;;;;;;5013500;28;19921;-75
2021/11/12 15:50:31;;;;;;;;;;;;;;;;;;5018192;28;19929;-74
2021/11/12 16:11:24;;;;;;;;;;;;;;;;;;5017793;28;19917;-75
2021/11/12 16:14:03;;;;;;;;;;;;;;;;;;5010141;28;19913;-76
2021/11/12 16:24:58;;;;;;;;;;;;;;;;;;5015773;28;19920;-75
2021/11/12 16:27:24;;;;;;;;;;;;;;;;;;5018495;28;19984;-75
2021/11/12 16:29:52;;;;;;;;;;;;;;;;;;5016561;28;20679;-77
2021/11/12 16:32:22;;;;;;;;;;;;;;;;;;5016716;28;19913;-74
2021/11/12 16:34:55;;;;;;;;;;;;;;;;;;5016580;28;19922;-75
2021/11/12 16:37:23;;;;;;;;;;;;;;;;;;5013846;28;20022;-75
2021/11/12 16:39:54;;;;;;;;;;;;;;;;;;5012844;28;19913;-74
2021/11/12 16:45:14;;;;;;;;;;;;;;;;;;5016385;28;19948;-76
2021/11/12 16:55:33;;;;;;;;;;;;;;;;;;5015920;28;19967;-75
2021/11/12 17:05:48;;;;;;;;;;;;;;;;;;5018813;28;20365;-75
2021/11/12 17:08:29;;;;;;;;;;;;;;;;;;5017732;28;19924;-76
2021/11/12 17:13:40;;;;;;;;;;;;;;;;;;5008878;28;20016;-75
2021/11/12 17:19:03;;;;;;;;;;;;;;;;;;5016253;28;20186;-75
2021/11/12 17:46:31;;;;;;;;;;;;;;;;;;5016791;28;19962;-76
2021/11/12 18:02:35;;;;;;;;;;;;;;;;;;5008583;28;19920;-74
2021/11/12 18:13:09;;;;;;;;;;;;;;;;;;5008441;28;19910;-75
2021/11/12 21:46:30;;;;;;;;;;;;;;;;;;5011129;28;19909;-76
2021/11/12 21:48:59;;;;;;;;;;;;;;;;;;5013371;28;20381;-77
2021/11/12 21:51:25;;;;;;;;;;;;;;;;;;5027116;28;19913;-77
2021/11/12 21:53:51;;;;;;;;;;;;;;;;;;5026955;28;19909;-75
2021/11/12 21:56:17;;;;;;;;;;;;;;;;;;5024740;28;19935;-78
2021/11/12 21:58:43;;;;;;;;;;;;;;;;;;5025377;28;20004;-76
2021/11/12 22:01:10;;;;;;;;;;;;;;;;;;5026973;28;19916;-78
2021/11/12 22:03:36;;;;;;;;;;;;;;;;;;5026920;28;19909;-76
2021/11/12 22:06:02;;;;;;;;;;;;;;;;;;5026923;28;20044;-75
2021/11/12 22:08:29;;;;;;;;;;;;;;;;;;5027128;28;20459;-75
2021/11/12 22:10:55;;;;;;;;;;;;;;;;;;5024993;28;20443;-76
2021/11/12 22:13:21;;;;;;;;;;;;;;;;;;5008681;28;20321;-77
2021/11/12 22:15:47;;;;;;;;;;;;;;;;;;5008615;28;19933;-75
2021/11/12 22:18:12;;;;;;;;;;;;;;;;;;5017868;28;19913;-76
2021/11/12 22:20:38;;;;;;;;;;;;;;;;;;5026597;28;19920;-76
2021/11/12 22:23:05;;;;;;;;;;;;;;;;;;5028942;28;20276;-75
2021/11/12 22:25:32;;;;;;;;;;;;;;;;;;5024845;28;19910;-78
2021/11/12 22:27:58;;;;;;;;;;;;;;;;;;5022009;28;19925;-77
2021/11/12 22:30:24;;;;;;;;;;;;;;;;;;5027426;28;20387;-74
2021/11/12 22:32:51;;;;;;;;;;;;;;;;;;5020970;28;20011;-76
2021/11/12 22:35:16;;;;;;;;;;;;;;;;;;5018946;28;20218;-77
2021/11/12 22:37:42;;;;;;;;;;;;;;;;;;5020126;28;20229;-76
2021/11/12 22:40:08;;;;;;;;;;;;;;;;;;5015072;28;20196;-78
2021/11/12 22:42:34;;;;;;;;;;;;;;;;;;5022443;28;20439;-77
2021/11/12 22:45:00;;;;;;;;;;;;;;;;;;5013062;28;19937;-76
2021/11/12 22:47:26;;;;;;;;;;;;;;;;;;5007351;28;19953;-76
2021/11/12 22:49:52;;;;;;;;;;;;;;;;;;5019596;28;19920;-77
2021/11/12 22:52:18;;;;;;;;;;;;;;;;;;5013561;28;20000;-75
2021/11/12 22:54:47;;;;;;;;;;;;;;;;;;5023573;28;20000;-74
2021/11/12 22:57:13;;;;;;;;;;;;;;;;;;5019462;28;19909;-75
2021/11/12 22:59:39;;;;;;;;;;;;;;;;;;5007093;28;19933;-77
2021/11/12 23:02:05;;;;;;;;;;;;;;;;;;5011676;28;19976;-76
2021/11/12 23:04:30;;;;;;;;;;;;;;;;;;5009885;28;19960;-77
2021/11/12 23:06:56;;;;;;;;;;;;;;;;;;5006469;28;19920;-75
2021/11/12 23:09:22;;;;;;;;;;;;;;;;;;5007295;28;19909;-76
2021/11/12 23:11:49;;;;;;;;;;;;;;;;;;5007744;28;19909;-78
2021/11/12 23:14:14;;;;;;;;;;;;;;;;;;5020712;28;19920;-76
2021/11/12 23:16:40;;;;;;;;;;;;;;;;;;5011162;28;19949;-75
2021/11/12 23:19:06;;;;;;;;;;;;;;;;;;5012008;28;19913;-77
2021/11/12 23:21:32;;;;;;;;;;;;;;;;;;5018178;28;19910;-76
2021/11/12 23:23:58;;;;;;;;;;;;;;;;;;5023202;28;20289;-78
2021/11/12 23:26:24;;;;;;;;;;;;;;;;;;5010105;28;19996;-75
2021/11/12 23:28:50;;;;;;;;;;;;;;;;;;5009212;28;19925;-76
2021/11/12 23:31:16;;;;;;;;;;;;;;;;;;5010635;28;19917;-76
2021/11/12 23:33:42;;;;;;;;;;;;;;;;;;5020418;28;19936;-76
2021/11/12 23:36:08;;;;;;;;;;;;;;;;;;5011473;28;19909;-77
2021/11/12 23:38:33;;;;;;;;;;;;;;;;;;5008678;28;19913;-76
2021/11/12 23:40:59;;;;;;;;;;;;;;;;;;5018426;28;19920;-76
2021/11/12 23:43:25;;;;;;;;;;;;;;;;;;5012100;28;20362;-80
2021/11/12 23:45:51;;;;;;;;;;;;;;;;;;5018270;28;19967;-75
2021/11/12 23:48:17;;;;;;;;;;;;;;;;;;5012490;28;20013;-76
2021/11/12 23:50:43;;;;;;;;;;;;;;;;;;5025937;28;19916;-77
2021/11/12 23:53:09;;;;;;;;;;;;;;;;;;5019187;28;20355;-76
2021/11/12 23:55:35;;;;;;;;;;;;;;;;;;5024405;28;19928;-76
2021/11/12 23:58:03;;;;;;;;;;;;;;;;;;5017393;28;19921;-77
